Time;durP1;ratioP1;P1;durP2;ratioP2;P2;SDS_P1;SDS_P2;PMS_P1;PMS_P2;Temp;Humidity;BMP_temperature;BMP_pressure;BME280_temperature;BME280_humidity;BME280_pressure;Samples;Min_cycle;Max_cycle;Signal;HPM_P1;HPM_P2
2022/05/25 00:00:19;;;;;;;0.53;0.53;;;;;;;-140.05;100.00;61859.38;4972476;28;20774;-63
2022/05/25 00:02:46;;;;;;;1.13;0.83;;;;;;;-140.05;100.00;61859.38;4972699;28;20250;-64
2022/05/25 00:05:15;;;;;;;0.20;0.20;;;;;;;-140.05;100.00;61859.38;4972670;28;20211;-64
2022/05/25 00:07:42;;;;;;;0.73;0.60;;;;;;;-140.05;100.00;61859.38;4972851;28;20195;-65
2022/05/25 00:10:10;;;;;;;0.47;0.47;;;;;;;-140.05;100.00;61859.38;4972687;28;20199;-64
2022/05/25 00:12:39;;;;;;;0.53;0.53;;;;;;;-140.05;100.00;61859.38;4972622;28;20203;-63
2022/05/25 00:15:08;;;;;;;0.20;0.20;;;;;;;-140.05;100.00;61859.38;4972978;28;20199;-63
2022/05/25 00:17:35;;;;;;;0.47;0.47;;;;;;;-140.05;100.00;61859.38;4972272;28;20188;-64
2022/05/25 00:20:03;;;;;;;0.83;0.83;;;;;;;-140.05;100.00;61859.38;4970684;28;20231;-65
2022/05/25 00:22:54;;;;;;;0.20;0.20;;;;;;;-140.05;100.00;61859.38;4972122;28;20285;-65
2022/05/25 00:25:30;;;;;;;0.20;0.20;;;;;;;-140.05;100.00;61859.38;4972509;28;20211;-66
2022/05/25 00:27:57;;;;;;;0.20;0.20;;;;;;;-140.05;100.00;61859.38;4972362;28;20195;-66
2022/05/25 00:30:25;;;;;;;0.90;0.90;;;;;;;-140.05;100.00;61859.38;4972376;28;20203;-65
2022/05/25 00:32:53;;;;;;;0.30;0.30;;;;;;;-140.05;100.00;61859.38;4972122;28;20187;-63
2022/05/25 00:35:21;;;;;;;0.40;0.40;;;;;;;-140.05;100.00;61859.38;4972383;28;20596;-64
2022/05/25 00:37:48;;;;;;;0.13;0.13;;;;;;;-140.05;100.00;61859.38;4955335;28;20603;-64
2022/05/25 00:40:22;;;;;;;0.70;0.70;;;;;;;-140.05;100.00;61859.38;4974114;28;20223;-66
2022/05/25 00:42:49;;;;;;;0.40;0.40;;;;;;;-140.05;100.00;61859.38;4972732;28;20190;-65
2022/05/25 00:45:16;;;;;;;0.10;0.10;;;;;;;-140.05;100.00;61859.38;4971808;28;20618;-65
2022/05/25 00:47:47;;;;;;;0.70;0.70;;;;;;;-140.05;100.00;61859.38;4971926;28;20199;-65
2022/05/25 00:50:17;;;;;;;0.37;0.30;;;;;;;-140.05;100.00;61859.38;4971943;28;20206;-64
2022/05/25 00:52:47;;;;;;;0.53;0.53;;;;;;;-140.05;100.00;61859.38;4971906;28;20258;-65
2022/05/25 00:55:20;;;;;;;0.60;0.60;;;;;;;-140.05;100.00;61859.38;4971368;28;20209;-64
2022/05/25 00:57:48;;;;;;;0.30;0.30;;;;;;;-140.05;100.00;61859.38;4971942;28;20187;-64
2022/05/25 01:00:20;;;;;;;0.60;0.60;;;;;;;-140.05;100.00;61859.38;4971424;28;20286;-63
2022/05/25 01:02:51;;;;;;;1.03;0.87;;;;;;;-140.05;100.00;61859.38;4971391;28;20729;-64
2022/05/25 01:05:31;;;;;;;0.20;0.20;;;;;;;-140.05;100.00;61859.38;4971676;28;20234;-63
2022/05/25 01:08:07;;;;;;;0.30;0.30;;;;;;;-140.05;100.00;61859.38;4971434;28;20210;-63
2022/05/25 01:11:01;;;;;;;0.20;0.20;;;;;;;-140.05;100.00;61859.38;4971436;28;20186;-64
2022/05/25 01:13:46;;;;;;;0.50;0.50;;;;;;;-140.05;100.00;61859.38;4971248;28;20226;-65
2022/05/25 01:16:30;;;;;;;0.30;0.30;;;;;;;-140.05;100.00;61859.38;4971652;28;20195;-65
2022/05/25 01:19:12;;;;;;;0.60;0.60;;;;;;;-140.05;100.00;61859.38;4971521;28;20250;-64
2022/05/25 01:21:50;;;;;;;0.20;0.20;;;;;;;-140.05;100.00;61859.38;4970810;28;20745;-63
2022/05/25 01:24:20;;;;;;;0.30;0.30;;;;;;;-140.05;100.00;61859.38;4970786;28;20199;-64
2022/05/25 01:26:55;;;;;;;0.50;0.50;;;;;;;-140.05;100.00;61859.38;4970987;28;20203;-62
2022/05/25 01:30:00;;;;;;;0.33;0.33;;;;;;;-140.05;100.00;61859.38;4970873;28;20550;-62
2022/05/25 01:32:59;;;;;;;0.30;0.30;;;;;;;-140.05;100.00;61859.38;4970639;28;20213;-63
2022/05/25 01:35:29;;;;;;;0.50;0.50;;;;;;;-140.05;100.00;61859.38;4970815;28;20242;-63
2022/05/25 01:38:31;;;;;;;0.30;0.30;;;;;;;-140.05;100.00;61859.38;4970670;28;20254;-63
2022/05/25 01:41:24;;;;;;;0.20;0.20;;;;;;;-140.05;100.00;61859.38;4969966;28;20226;-64
2022/05/25 01:44:21;;;;;;;0.53;0.53;;;;;;;-140.05;100.00;61859.38;4970245;28;20209;-64
2022/05/25 01:46:54;;;;;;;0.43;0.43;;;;;;;-140.05;100.00;61859.38;4953534;28;20203;-65
2022/05/25 01:49:28;;;;;;;0.47;0.47;;;;;;;-140.05;100.00;61859.38;4971080;28;20670;-64
2022/05/25 01:52:00;;;;;;;0.37;0.37;;;;;;;-140.05;100.00;61859.38;4970599;28;20439;-65
2022/05/25 01:54:33;;;;;;;0.70;0.70;;;;;;;-140.05;100.00;61859.38;4970901;28;20211;-64
2022/05/25 01:57:05;;;;;;;0.50;0.50;;;;;;;-140.05;100.00;61859.38;4970715;28;20745;-64
2022/05/25 01:59:32;;;;;;;0.43;0.43;;;;;;;-140.05;100.00;61859.38;4970738;28;20227;-65
2022/05/25 02:04:52;;;;;;;0.20;0.20;;;;;;;-140.05;100.00;61859.38;4970074;28;20199;-63
2022/05/25 02:07:34;;;;;;;0.90;0.90;;;;;;;-140.05;100.00;61859.38;4970947;28;20451;-63
2022/05/25 02:10:25;;;;;;;0.40;0.30;;;;;;;-140.05;100.00;61859.38;4970814;28;20554;-62
2022/05/25 02:12:52;;;;;;;0.30;0.30;;;;;;;-140.05;100.00;61859.38;4969465;28;20242;-64
2022/05/25 02:15:25;;;;;;;0.80;0.80;;;;;;;-140.05;100.00;61859.38;4970400;28;20203;-64
2022/05/25 02:17:58;;;;;;;2.00;1.07;;;;;;;-140.05;100.00;61859.38;4970519;28;20199;-63
2022/05/25 02:20:40;;;;;;;0.20;0.20;;;;;;;-140.05;100.00;61859.38;4970435;28;20245;-64
2022/05/25 02:23:50;;;;;;;0.57;0.57;;;;;;;-140.05;100.00;61859.38;4969883;28;20666;-63
2022/05/25 02:26:24;;;;;;;0.60;0.60;;;;;;;-140.05;100.00;61859.38;4964042;28;20211;-63
2022/05/25 02:29:19;;;;;;;0.87;0.87;;;;;;;-140.05;100.00;61859.38;4978062;28;20516;-63
2022/05/25 02:31:52;;;;;;;1.03;1.03;;;;;;;-140.05;100.00;61859.38;4970920;28;20483;-63
2022/05/25 02:34:22;;;;;;;0.40;0.40;;;;;;;-140.05;100.00;61859.38;4953308;28;20837;-65
2022/05/25 02:36:50;;;;;;;0.63;0.63;;;;;;;-140.05;100.00;61859.38;4970685;28;20528;-62
2022/05/25 02:39:17;;;;;;;0.60;0.60;;;;;;;-140.05;100.00;61859.38;4970823;28;20541;-61
2022/05/25 02:41:50;;;;;;;0.90;0.90;;;;;;;-140.05;100.00;61859.38;4970839;28;20560;-62
2022/05/25 02:44:18;;;;;;;0.47;0.47;;;;;;;-140.05;100.00;61859.38;4973917;28;20530;-63
2022/05/25 02:46:45;;;;;;;1.07;0.80;;;;;;;-140.05;100.00;61859.38;4974343;28;20450;-62
2022/05/25 02:49:13;;;;;;;0.10;0.10;;;;;;;-140.05;100.00;61859.38;4974206;28;20203;-63
2022/05/25 02:51:40;;;;;;;1.00;0.93;;;;;;;-140.05;100.00;61859.38;4973255;28;20241;-63
2022/05/25 02:54:08;;;;;;;0.63;0.63;;;;;;;-140.05;100.00;61859.38;4973291;28;20450;-64
2022/05/25 02:56:36;;;;;;;0.97;0.97;;;;;;;-140.05;100.00;61859.38;4973809;28;20506;-64
2022/05/25 02:59:03;;;;;;;0.93;0.93;;;;;;;-140.05;100.00;61859.38;4973905;28;20438;-65
2022/05/25 03:01:30;;;;;;;0.53;0.53;;;;;;;-140.05;100.00;61859.38;4973506;28;20496;-64
2022/05/25 03:03:57;;;;;;;0.77;0.77;;;;;;;-140.05;100.00;61859.38;4973367;28;20442;-65
2022/05/25 03:06:24;;;;;;;1.47;0.83;;;;;;;-140.05;100.00;61859.38;4973843;28;20478;-63
2022/05/25 03:08:51;;;;;;;0.30;0.30;;;;;;;-140.05;100.00;61859.38;4973801;28;20815;-63
2022/05/25 03:11:18;;;;;;;0.20;0.20;;;;;;;-140.05;100.00;61859.38;4973678;28;20454;-63
2022/05/25 03:13:48;;;;;;;0.17;0.17;;;;;;;-140.05;100.00;61859.38;4973385;28;21003;-64
2022/05/25 03:16:18;;;;;;;0.30;0.30;;;;;;;-140.05;100.00;61859.38;4973528;28;20450;-63
2022/05/25 03:18:47;;;;;;;0.50;0.50;;;;;;;-140.05;100.00;61859.38;4973347;28;20511;-62
2022/05/25 03:21:14;;;;;;;1.70;1.60;;;;;;;-140.05;100.00;61859.38;4972888;28;20489;-65
2022/05/25 03:23:40;;;;;;;0.43;0.43;;;;;;;-140.05;100.00;61859.38;4973428;28;20469;-63
2022/05/25 03:26:08;;;;;;;0.37;0.37;;;;;;;-140.05;100.00;61859.38;4973818;28;20446;-63
2022/05/25 03:28:35;;;;;;;0.30;0.30;;;;;;;-140.05;100.00;61859.38;4973680;28;20517;-65
2022/05/25 03:31:03;;;;;;;0.37;0.37;;;;;;;-140.05;100.00;61859.38;4973536;28;20446;-63
2022/05/25 03:33:31;;;;;;;0.30;0.30;;;;;;;-140.05;100.00;61859.38;4973160;28;20464;-63
2022/05/25 03:35:58;;;;;;;0.33;0.33;;;;;;;-140.05;100.00;61859.38;4973301;28;20509;-63
2022/05/25 03:38:30;;;;;;;0.53;0.53;;;;;;;-140.05;100.00;61859.38;4973365;28;20446;-63
2022/05/25 03:40:58;;;;;;;1.10;0.93;;;;;;;-140.05;100.00;61859.38;4973335;28;20486;-63
2022/05/25 03:43:30;;;;;;;1.13;1.03;;;;;;;-140.05;100.00;61859.38;4972994;28;20203;-63
2022/05/25 03:45:57;;;;;;;1.90;0.50;;;;;;;-140.05;100.00;61859.38;4973355;28;20218;-64
2022/05/25 03:48:24;;;;;;;0.70;0.70;;;;;;;-140.05;100.00;61859.38;4972666;28;20219;-65
2022/05/25 03:50:51;;;;;;;0.37;0.37;;;;;;;-140.05;100.00;61859.38;4972534;28;20438;-63
2022/05/25 03:53:18;;;;;;;0.67;0.67;;;;;;;-140.05;100.00;61859.38;4973025;28;20690;-63
2022/05/25 03:55:47;;;;;;;1.27;1.17;;;;;;;-140.05;100.00;61859.38;4972309;28;20455;-65
2022/05/25 03:58:14;;;;;;;0.40;0.40;;;;;;;-140.05;100.00;61859.38;4972745;28;20981;-63
2022/05/25 04:00:41;;;;;;;0.77;0.77;;;;;;;-140.05;100.00;61859.38;4972614;28;20508;-64
2022/05/25 04:03:12;;;;;;;0.63;0.63;;;;;;;-140.05;100.00;61859.38;4974995;28;20541;-63
2022/05/25 04:05:39;;;;;;;0.70;0.70;;;;;;;-140.05;100.00;61859.38;4972659;28;20501;-62
2022/05/25 04:08:06;;;;;;;0.70;0.70;;;;;;;-140.05;100.00;61859.38;4972756;28;20509;-63
2022/05/25 04:10:34;;;;;;;0.20;0.20;;;;;;;-140.05;100.00;61859.38;4973314;28;20207;-63
2022/05/25 04:13:02;;;;;;;0.63;0.63;;;;;;;-140.05;100.00;61859.38;4972976;28;20201;-65
2022/05/25 04:15:31;;;;;;;0.53;0.53;;;;;;;-140.05;100.00;61859.38;4973045;28;20882;-63
2022/05/25 04:17:58;;;;;;;0.30;0.30;;;;;;;-140.05;100.00;61859.38;4972044;28;20271;-64
2022/05/25 04:20:26;;;;;;;2.10;1.40;;;;;;;-140.05;100.00;61859.38;4972400;28;20222;-63
2022/05/25 04:22:54;;;;;;;0.73;0.73;;;;;;;-140.05;100.00;61859.38;4972893;28;20454;-64
2022/05/25 04:25:23;;;;;;;0.30;0.30;;;;;;;-140.05;100.00;61859.38;4973233;28;20591;-64
2022/05/25 04:27:52;;;;;;;0.60;0.60;;;;;;;-140.05;100.00;61859.38;4972303;28;20431;-64
2022/05/25 04:30:23;;;;;;;0.17;0.17;;;;;;;-140.05;100.00;61859.38;4971643;28;20187;-64
2022/05/25 04:32:50;;;;;;;0.20;0.20;;;;;;;-140.05;100.00;61859.38;4971733;28;20203;-64
2022/05/25 04:35:16;;;;;;;0.67;0.67;;;;;;;-140.05;100.00;61859.38;4972054;28;20449;-64
2022/05/25 04:37:49;;;;;;;1.03;1.03;;;;;;;-140.05;100.00;61859.38;4972177;28;20338;-64
2022/05/25 04:40:23;;;;;;;0.47;0.47;;;;;;;-140.05;100.00;61859.38;4971654;28;20246;-62
2022/05/25 04:42:50;;;;;;;0.50;0.50;;;;;;;-140.05;100.00;61859.38;4971871;28;20187;-64
2022/05/25 04:45:18;;;;;;;0.60;0.60;;;;;;;-140.05;100.00;61859.38;4971499;28;20210;-63
2022/05/25 04:47:45;;;;;;;1.97;1.73;;;;;;;-140.05;100.00;61859.38;4971883;28;20188;-64
2022/05/25 04:50:16;;;;;;;0.90;0.90;;;;;;;-140.05;100.00;61859.38;4971077;28;20183;-66
2022/05/25 04:52:43;;;;;;;2.13;2.03;;;;;;;-140.05;100.00;61859.38;4971765;28;20213;-65
2022/05/25 04:57:19;;;;;;;8.87;2.40;;;;;;;-140.05;100.00;61859.38;4971605;28;20207;-65
2022/05/25 04:57:58;;;;;;;1.50;1.40;;;;;;;-140.05;100.00;61859.38;4970287;28;20203;-64
2022/05/25 05:00:26;;;;;;;0.63;0.63;;;;;;;-140.05;100.00;61859.38;4971095;28;20215;-65
2022/05/25 05:02:53;;;;;;;0.90;0.70;;;;;;;-140.05;100.00;61859.38;4971712;28;20199;-64
2022/05/25 05:05:21;;;;;;;0.43;0.43;;;;;;;-140.05;100.00;61859.38;4971564;28;20195;-66
2022/05/25 05:07:48;;;;;;;2.47;1.13;;;;;;;-140.05;100.00;61859.38;4971030;28;20199;-65
2022/05/25 05:10:15;;;;;;;0.60;0.60;;;;;;;-140.05;100.00;61859.38;4971801;28;20247;-65
2022/05/25 05:12:42;;;;;;;0.97;0.97;;;;;;;-140.05;100.00;61859.38;4971387;28;20210;-64
2022/05/25 05:15:10;;;;;;;1.27;1.17;;;;;;;-140.05;100.00;61859.38;4971496;28;20190;-65
2022/05/25 05:17:37;;;;;;;0.73;0.73;;;;;;;-140.05;100.00;61859.38;4971421;28;20263;-67
2022/05/25 05:20:18;;;;;;;3.40;2.57;;;;;;;-140.05;100.00;61859.38;4953506;28;20257;-69
2022/05/25 05:22:45;;;;;;;2.93;2.73;;;;;;;-140.05;100.00;61859.38;4971348;28;20207;-67
2022/05/25 05:25:12;;;;;;;0.93;0.93;;;;;;;-140.05;100.00;61859.38;4970985;28;20198;-67
2022/05/25 05:27:39;;;;;;;0.50;0.50;;;;;;;-140.05;100.00;61859.38;4971621;28;20599;-68
2022/05/25 05:30:06;;;;;;;0.80;0.40;;;;;;;-140.05;100.00;61859.38;4971116;28;20746;-68
2022/05/25 05:32:35;;;;;;;0.77;0.63;;;;;;;-140.05;100.00;61859.38;4953943;28;20682;-65
2022/05/25 05:35:03;;;;;;;0.73;0.73;;;;;;;-140.05;100.00;61859.38;4971081;28;20199;-67
2022/05/25 05:37:39;;;;;;;1.17;1.17;;;;;;;-140.05;100.00;61859.38;4969953;28;20203;-65
2022/05/25 05:40:10;;;;;;;0.30;0.30;;;;;;;-140.05;100.00;61859.38;4970851;28;20276;-66
2022/05/25 05:42:39;;;;;;;0.70;0.70;;;;;;;-140.05;100.00;61859.38;4971107;28;20278;-67
2022/05/25 05:45:12;;;;;;;2.03;0.83;;;;;;;-140.05;100.00;61859.38;4971131;28;20810;-67
2022/05/25 05:47:57;;;;;;;1.13;0.83;;;;;;;-140.05;100.00;61859.38;4970890;28;20701;-66
2022/05/25 05:50:25;;;;;;;0.50;0.50;;;;;;;-140.05;100.00;61859.38;4970809;28;20286;-65
2022/05/25 05:52:52;;;;;;;0.97;0.97;;;;;;;-140.05;100.00;61859.38;4972058;28;20269;-68
2022/05/25 05:55:21;;;;;;;0.47;0.47;;;;;;;-140.05;100.00;61859.38;4970900;28;20261;-66
2022/05/25 05:57:48;;;;;;;1.27;1.17;;;;;;;-140.05;100.00;61859.38;4976357;28;20203;-66
2022/05/25 06:00:16;;;;;;;1.43;1.27;;;;;;;-140.05;100.00;61859.38;4974072;28;20292;-67
2022/05/25 06:02:44;;;;;;;0.30;0.30;;;;;;;-140.05;100.00;61859.38;4971126;28;20203;-67
2022/05/25 06:05:11;;;;;;;0.50;0.50;;;;;;;-140.05;100.00;61859.38;4970684;28;20249;-66
2022/05/25 06:07:39;;;;;;;0.97;0.97;;;;;;;-140.05;100.00;61859.38;4970527;28;20195;-66
2022/05/25 06:10:07;;;;;;;0.60;0.60;;;;;;;-140.05;100.00;61859.38;4970904;28;20191;-66
2022/05/25 06:12:40;;;;;;;1.47;1.37;;;;;;;-140.05;100.00;61859.38;4970717;28;20847;-67
2022/05/25 06:20:40;;;;;;;1.50;1.37;;;;;;;-140.05;100.00;61859.38;4974473;28;20234;-66
2022/05/25 06:23:06;;;;;;;1.47;1.37;;;;;;;-140.05;100.00;61859.38;4975071;28;20278;-66
2022/05/25 06:25:33;;;;;;;0.73;0.73;;;;;;;-140.05;100.00;61859.38;4974702;28;20207;-65
2022/05/25 06:28:00;;;;;;;1.60;1.50;;;;;;;-140.05;100.00;61859.38;4974426;28;20690;-65
2022/05/25 06:30:27;;;;;;;0.63;0.63;;;;;;;-140.05;100.00;61859.38;4974374;28;20238;-65
2022/05/25 06:32:54;;;;;;;4.53;1.80;;;;;;;-140.05;100.00;61859.38;4974406;28;20211;-65
2022/05/25 06:35:20;;;;;;;1.27;0.70;;;;;;;-140.05;100.00;61859.38;4974155;28;20199;-67
2022/05/25 06:37:48;;;;;;;0.40;0.40;;;;;;;-140.05;100.00;61859.38;4974505;28;20294;-67
2022/05/25 06:40:15;;;;;;;0.90;0.90;;;;;;;-140.05;100.00;61859.38;4977965;28;20209;-69
2022/05/25 06:42:42;;;;;;;2.13;1.93;;;;;;;-140.05;100.00;61859.38;4979222;28;20226;-66
2022/05/25 06:45:10;;;;;;;2.93;1.50;;;;;;;-140.05;100.00;61859.38;4974744;28;20358;-66
2022/05/25 06:47:37;;;;;;;0.43;0.43;;;;;;;-140.05;100.00;61859.38;4973832;28;20207;-66
2022/05/25 06:50:05;;;;;;;1.23;1.23;;;;;;;-140.05;100.00;61859.38;4972812;28;20234;-65
2022/05/25 06:52:32;;;;;;;1.47;1.37;;;;;;;-140.05;100.00;61859.38;4956367;28;20211;-63
2022/05/25 06:55:00;;;;;;;0.60;0.60;;;;;;;-140.05;100.00;61859.38;4974795;28;20559;-67
2022/05/25 06:57:27;;;;;;;0.87;0.87;;;;;;;-140.05;100.00;61859.38;4974733;28;20218;-66
2022/05/25 06:59:54;;;;;;;0.63;0.63;;;;;;;-140.05;100.00;61859.38;4974135;28;20199;-64
2022/05/25 07:02:22;;;;;;;0.67;0.67;;;;;;;-140.05;100.00;61859.38;4973774;28;20714;-66
2022/05/25 07:04:49;;;;;;;0.43;0.43;;;;;;;-140.05;100.00;61859.38;4973789;28;20183;-66
2022/05/25 07:07:15;;;;;;;1.43;1.17;;;;;;;-140.05;100.00;61859.38;4973834;28;20758;-65
2022/05/25 07:09:43;;;;;;;0.93;0.87;;;;;;;-140.05;100.00;61859.38;4973809;28;20195;-64
2022/05/25 07:12:10;;;;;;;0.90;0.87;;;;;;;-140.05;100.00;61859.38;4973446;28;20314;-65
2022/05/25 07:14:39;;;;;;;0.20;0.20;;;;;;;-140.05;100.00;61859.38;4973966;28;20222;-66
2022/05/25 07:17:07;;;;;;;0.73;0.73;;;;;;;-140.05;100.00;61859.38;4973658;28;20211;-64
2022/05/25 07:19:34;;;;;;;0.33;0.33;;;;;;;-140.05;100.00;61859.38;4974181;28;20617;-67
2022/05/25 07:22:01;;;;;;;0.50;0.50;;;;;;;-140.05;100.00;61859.38;4975187;28;20249;-65
2022/05/25 07:24:27;;;;;;;0.60;0.40;;;;;;;-140.05;100.00;61859.38;4973918;28;20207;-65
2022/05/25 07:26:54;;;;;;;0.77;0.77;;;;;;;-140.05;100.00;61859.38;4973719;28;20202;-66
2022/05/25 07:29:21;;;;;;;0.77;0.77;;;;;;;-140.05;100.00;61859.38;4972476;28;20703;-64
2022/05/25 07:31:52;;;;;;;2.13;1.73;;;;;;;-140.05;100.00;61859.38;4973534;28;20196;-65
2022/05/25 07:34:24;;;;;;;0.57;0.57;;;;;;;-140.05;100.00;61859.38;4973748;28;20204;-66
2022/05/25 07:37:04;;;;;;;2.47;2.00;;;;;;;-140.05;100.00;61859.38;4973415;28;20266;-65
2022/05/25 07:39:40;;;;;;;0.73;0.73;;;;;;;-140.05;100.00;61859.38;4973447;28;20230;-67
2022/05/25 07:42:08;;;;;;;1.00;1.00;;;;;;;-140.05;100.00;61859.38;4973463;28;20232;-68
2022/05/25 07:44:57;;;;;;;1.10;1.10;;;;;;;-140.05;100.00;61859.38;4974757;28;20561;-66
2022/05/25 07:47:26;;;;;;;2.10;1.57;;;;;;;-140.05;100.00;61859.38;4973247;28;20242;-69
2022/05/25 07:49:53;;;;;;;0.67;0.67;;;;;;;-140.05;100.00;61859.38;4973211;28;20262;-67
2022/05/25 07:52:25;;;;;;;1.13;1.03;;;;;;;-140.05;100.00;61859.38;4973479;28;20214;-65
2022/05/25 07:54:54;;;;;;;2.30;1.87;;;;;;;-140.05;100.00;61859.38;4972704;28;20239;-64
2022/05/25 07:57:21;;;;;;;0.50;0.50;;;;;;;-140.05;100.00;61859.38;4973198;28;20627;-67
2022/05/25 07:59:48;;;;;;;0.33;0.33;;;;;;;-140.05;100.00;61859.38;4972991;28;20286;-66
2022/05/25 08:07:57;;;;;;;1.77;1.67;;;;;;;-140.05;100.00;61859.38;4973109;28;20579;-63
2022/05/25 08:10:25;;;;;;;1.07;1.07;;;;;;;-140.05;100.00;61859.38;4972551;28;20258;-66
2022/05/25 08:12:55;;;;;;;1.60;1.50;;;;;;;-140.05;100.00;61859.38;4972757;28;20689;-64
2022/05/25 08:15:24;;;;;;;1.00;1.00;;;;;;;-140.05;100.00;61859.38;4972876;28;20656;-64
2022/05/25 08:17:51;;;;;;;1.03;0.97;;;;;;;-140.05;100.00;61859.38;4973257;28;20195;-67
2022/05/25 08:20:19;;;;;;;0.40;0.40;;;;;;;-140.05;100.00;61859.38;4972664;28;20214;-66
2022/05/25 08:22:46;;;;;;;1.00;1.00;;;;;;;-140.05;100.00;61859.38;4972327;28;20223;-67
2022/05/25 08:25:16;;;;;;;2.30;2.20;;;;;;;-140.05;100.00;61859.38;4972243;28;20254;-67
2022/05/25 08:27:43;;;;;;;1.83;1.53;;;;;;;-140.05;100.00;61859.38;4972263;28;20349;-64
2022/05/25 08:30:14;;;;;;;0.93;0.93;;;;;;;-140.05;100.00;61859.38;4972598;28;20195;-65
2022/05/25 08:32:41;;;;;;;0.50;0.50;;;;;;;-140.05;100.00;61859.38;4972459;28;20207;-66
2022/05/25 08:35:09;;;;;;;0.97;0.97;;;;;;;-140.05;100.00;61859.38;4955106;28;20590;-65
2022/05/25 08:37:36;;;;;;;1.30;1.20;;;;;;;-140.05;100.00;61859.38;4972618;28;20198;-63
2022/05/25 08:40:04;;;;;;;1.07;1.03;;;;;;;-140.05;100.00;61859.38;4972220;28;20202;-64
2022/05/25 08:42:39;;;;;;;1.03;1.03;;;;;;;-140.05;100.00;61859.38;4971864;28;20225;-66
2022/05/25 08:45:07;;;;;;;0.97;0.97;;;;;;;-140.05;100.00;61859.38;4972334;28;20282;-65
2022/05/25 08:47:35;;;;;;;0.70;0.70;;;;;;;-140.05;100.00;61859.38;4971038;28;20211;-65
2022/05/25 08:50:03;;;;;;;0.83;0.83;;;;;;;-140.05;100.00;61859.38;4972202;28;20211;-64
2022/05/25 08:52:29;;;;;;;2.33;2.13;;;;;;;-140.05;100.00;61859.38;4971945;28;20226;-68
2022/05/25 08:55:01;;;;;;;1.20;1.20;;;;;;;-140.05;100.00;61859.38;4971988;28;20721;-68
2022/05/25 08:57:36;;;;;;;0.87;0.87;;;;;;;-140.05;100.00;61859.38;4971629;28;20686;-66
2022/05/25 09:00:13;;;;;;;4.13;1.00;;;;;;;-140.05;100.00;61859.38;4971877;28;20207;-63
2022/05/25 09:02:59;;;;;;;0.90;0.90;;;;;;;-140.05;100.00;61859.38;4971374;28;20243;-66
2022/05/25 09:05:34;;;;;;;2.40;1.43;;;;;;;-140.05;100.00;61859.38;4972019;28;21200;-68
2022/05/25 09:08:26;;;;;;;0.83;0.83;;;;;;;-140.05;100.00;61859.38;4972094;28;20205;-66
2022/05/25 09:11:07;;;;;;;1.60;1.50;;;;;;;-140.05;100.00;61859.38;4971639;28;20210;-66
2022/05/25 09:13:58;;;;;;;0.97;0.97;;;;;;;-140.05;100.00;61859.38;4971596;28;20658;-66
2022/05/25 09:16:29;;;;;;;1.23;1.07;;;;;;;-140.05;100.00;61859.38;4971595;28;20222;-65
2022/05/25 09:19:05;;;;;;;1.43;1.33;;;;;;;-140.05;100.00;61859.38;4971623;28;20211;-65
2022/05/25 09:21:43;;;;;;;3.83;1.40;;;;;;;-140.05;100.00;61859.38;4971109;28;20640;-66
2022/05/25 09:24:15;;;;;;;2.00;1.67;;;;;;;-140.05;100.00;61859.38;4975752;28;20203;-66
2022/05/25 09:26:43;;;;;;;0.63;0.63;;;;;;;-140.05;100.00;61859.38;4976585;28;20616;-67
2022/05/25 09:29:11;;;;;;;0.40;0.40;;;;;;;-140.05;100.00;61859.38;4971548;28;20678;-62
2022/05/25 09:31:43;;;;;;;0.63;0.63;;;;;;;-140.05;100.00;61859.38;4971476;28;20293;-64
2022/05/25 09:34:22;;;;;;;1.70;1.60;;;;;;;-140.05;100.00;61859.38;4971113;28;20678;-66
2022/05/25 09:36:57;;;;;;;0.73;0.73;;;;;;;-140.05;100.00;61859.38;4971127;28;20281;-66
2022/05/25 09:39:31;;;;;;;4.30;2.10;;;;;;;-140.05;100.00;61859.38;4953709;28;20764;-66
2022/05/25 09:42:00;;;;;;;2.17;1.43;;;;;;;-140.05;100.00;61859.38;4970775;28;20702;-64
2022/05/25 09:44:28;;;;;;;0.60;0.60;;;;;;;-140.05;100.00;61859.38;4971304;28;20214;-68
2022/05/25 09:47:06;;;;;;;0.87;0.87;;;;;;;-140.05;100.00;61859.38;4970795;28;20662;-66
2022/05/25 09:49:44;;;;;;;0.57;0.57;;;;;;;-140.05;100.00;61859.38;4970837;28;20289;-67
2022/05/25 09:52:15;;;;;;;1.13;1.13;;;;;;;-140.05;100.00;61859.38;4970656;28;20207;-66
2022/05/25 09:54:49;;;;;;;1.17;1.13;;;;;;;-140.05;100.00;61859.38;4971220;28;20223;-67
2022/05/25 09:57:28;;;;;;;2.60;1.90;;;;;;;-140.05;100.00;61859.38;4971000;28;20210;-66
2022/05/25 10:00:10;;;;;;;1.80;1.70;;;;;;;-140.05;100.00;61859.38;4953862;28;20207;-65
2022/05/25 10:02:50;;;;;;;2.80;1.43;;;;;;;-140.05;100.00;61859.38;4971087;28;20293;-65
2022/05/25 10:05:27;;;;;;;1.23;1.20;;;;;;;-140.05;100.00;61859.38;4970633;28;20290;-68
2022/05/25 10:08:03;;;;;;;1.53;1.00;;;;;;;-140.05;100.00;61859.38;4970721;28;20253;-64
2022/05/25 10:10:34;;;;;;;1.63;1.53;;;;;;;-140.05;100.00;61859.38;4970770;28;20213;-66
2022/05/25 10:13:15;;;;;;;1.10;1.10;;;;;;;-140.05;100.00;61859.38;4953321;28;20299;-69
2022/05/25 10:15:43;;;;;;;1.70;1.40;;;;;;;-140.05;100.00;61859.38;4970608;28;20220;-65
2022/05/25 10:18:14;;;;;;;1.37;1.30;;;;;;;-140.05;100.00;61859.38;4953383;28;20211;-65
2022/05/25 10:20:47;;;;;;;1.30;1.20;;;;;;;-140.05;100.00;61859.38;4970442;28;20242;-64
2022/05/25 10:23:23;;;;;;;0.80;0.80;;;;;;;-140.05;100.00;61859.38;4970683;28;20231;-66
2022/05/25 10:25:50;;;;;;;0.90;0.90;;;;;;;-140.05;100.00;61859.38;4970450;28;20725;-67
2022/05/25 10:28:23;;;;;;;1.00;1.00;;;;;;;-140.05;100.00;61859.38;4970712;28;20191;-65
2022/05/25 10:36:58;;;;;;;0.90;0.90;;;;;;;-140.05;100.00;61859.38;4970591;28;20207;-64
2022/05/25 10:39:28;;;;;;;1.10;1.00;;;;;;;-140.05;100.00;61859.38;4972901;28;20203;-65
2022/05/25 10:42:18;;;;;;;0.50;0.50;;;;;;;-140.05;100.00;61859.38;4972600;28;20207;-67
2022/05/25 10:44:59;;;;;;;0.80;0.80;;;;;;;-140.05;100.00;61859.38;4970275;28;20648;-68
2022/05/25 10:50:35;;;;;;;1.23;1.13;;;;;;;-140.05;100.00;61859.38;4970903;28;20666;-66
2022/05/25 10:56:47;;;;;;;1.53;1.43;;;;;;;-140.05;100.00;61859.38;4972391;28;20234;-66
2022/05/25 10:59:20;;;;;;;1.70;1.17;;;;;;;-140.05;100.00;61859.38;4952893;28;20565;-64
2022/05/25 11:01:49;;;;;;;1.33;1.23;;;;;;;-140.05;100.00;61859.38;4970198;28;20249;-67
2022/05/25 11:04:44;;;;;;;1.47;1.37;;;;;;;-140.05;100.00;61859.38;4971777;28;20191;-66
2022/05/25 11:07:27;;;;;;;1.20;1.20;;;;;;;-140.05;100.00;61859.38;4974248;28;20229;-63
2022/05/25 11:10:22;;;;;;;2.20;1.43;;;;;;;-140.05;100.00;61859.38;4956741;28;20214;-66
2022/05/25 11:13:19;;;;;;;0.60;0.60;;;;;;;-140.05;100.00;61859.38;4973929;28;20515;-67
2022/05/25 11:16:15;;;;;;;0.67;0.67;;;;;;;34.15;28.72;95023.81;4973692;28;20590;-66
2022/05/25 11:19:14;;;;;;;1.07;1.00;;;;;;;34.12;28.78;95019.19;4973940;28;20575;-69
2022/05/25 11:22:00;;;;;;;0.83;0.83;;;;;;;34.38;29.40;95023.97;4973170;28;20262;-65
2022/05/25 11:24:34;;;;;;;1.37;1.27;;;;;;;34.65;28.65;95021.41;4973445;28;20183;-67
2022/05/25 11:27:01;;;;;;;0.50;0.50;;;;;;;34.44;28.26;95016.94;4973354;28;20203;-66
2022/05/25 11:29:49;;;;;;;1.17;1.07;;;;;;;34.26;27.02;95018.28;4973137;28;20679;-66
2022/05/25 11:32:34;;;;;;;0.87;0.87;;;;;;;33.52;26.65;95019.63;4973280;28;20219;-68
2022/05/25 11:35:17;;;;;;;1.47;1.33;;;;;;;34.04;26.53;95012.25;4973769;28;20302;-64
2022/05/25 11:37:57;;;;;;;0.83;0.83;;;;;;;34.50;25.01;95009.13;4973700;28;20230;-65
2022/05/25 11:40:42;;;;;;;0.70;0.70;;;;;;;34.21;25.65;95005.91;4973260;28;20198;-66
2022/05/25 11:43:39;;;;;;;0.53;0.53;;;;;;;34.25;27.30;95006.59;4973177;28;20226;-65
2022/05/25 11:46:33;;;;;;;16.23;2.10;;;;;;;34.66;26.10;95004.66;4943135;28;20295;-63
2022/05/25 11:49:58;;;;;;;1.93;1.40;;;;;;;34.92;23.95;94995.00;4972782;28;20203;-67
2022/05/25 11:52:58;;;;;;;0.70;0.70;;;;;;;34.72;23.18;95002.25;4972957;28;20950;-67
2022/05/25 11:55:55;;;;;;;0.33;0.33;;;;;;;33.88;22.29;94975.84;4962988;28;20200;-69
2022/05/25 11:58:27;;;;;;;1.97;1.70;;;;;;;34.63;23.62;94994.59;4928161;28;20567;-67
2022/05/25 12:01:03;;;;;;;2.23;1.70;;;;;;;34.89;23.85;94984.16;4972883;28;20647;-66
2022/05/25 12:03:39;;;;;;;1.23;1.13;;;;;;;35.13;23.44;94989.31;4972645;28;20610;-64